Time;durP1;ratioP1;P1;durP2;ratioP2;P2;SDS_P1;SDS_P2;PMS_P1;PMS_P2;Temp;Humidity;BMP_temperature;BMP_pressure;BME280_temperature;BME280_humidity;BME280_pressure;Samples;Min_cycle;Max_cycle;Signal;HPM_P1;HPM_P2
2021/12/06 00:02:00;;;;;;;1.25;0.90;;;;;;;20.19;33.94;98449.94;5070499;28;20102;-64
2021/12/06 00:04:30;;;;;;;3.45;0.90;;;;;;;20.19;33.94;98449.16;5070389;28;20044;-64
2021/12/06 00:07:00;;;;;;;1.42;1.05;;;;;;;20.18;33.89;98461.44;5070648;28;20123;-65
2021/12/06 00:09:28;;;;;;;1.40;0.80;;;;;;;20.16;33.81;98459.06;5070310;28;20040;-65
2021/12/06 00:11:57;;;;;;;1.45;0.90;;;;;;;20.16;33.86;98469.38;5070087;28;20051;-65
2021/12/06 00:14:31;;;;;;;1.30;0.73;;;;;;;20.14;33.82;98475.31;5069849;28;20063;-64
2021/12/06 00:17:02;;;;;;;1.38;0.80;;;;;;;20.15;33.82;98471.38;5070238;28;20408;-48
2021/12/06 00:19:29;;;;;;;1.00;0.77;;;;;;;20.17;33.94;98457.09;5069928;28;20049;-48
2021/12/06 00:21:56;;;;;;;1.40;0.80;;;;;;;20.16;33.88;98459.06;5069999;28;20044;-50
2021/12/06 00:24:21;;;;;;;1.20;0.80;;;;;;;20.16;33.75;98469.38;5070056;28;20049;-48
2021/12/06 00:26:47;;;;;;;0.98;0.70;;;;;;;20.18;33.86;98478.91;5069394;28;20041;-49
2021/12/06 00:29:12;;;;;;;1.52;0.90;;;;;;;20.19;33.73;98476.91;5069834;28;20036;-49
2021/12/06 00:31:38;;;;;;;1.35;0.90;;;;;;;20.19;33.87;98474.91;5069848;28;20131;-49
2021/12/06 00:34:10;;;;;;;0.90;0.70;;;;;;;20.18;33.91;98470.56;5069912;28;20443;-64
2021/12/06 00:36:39;;;;;;;1.50;0.90;;;;;;;20.19;33.83;98468.56;5068518;28;20048;-64
2021/12/06 00:39:12;;;;;;;1.15;0.80;;;;;;;20.17;33.83;98462.63;5069814;28;20060;-64
2021/12/06 00:41:39;;;;;;;1.30;0.70;;;;;;;20.19;33.98;98466.59;5069569;28;20420;-64
2021/12/06 00:44:07;;;;;;;1.35;0.88;;;;;;;20.18;33.96;98472.53;5069614;28;20450;-64
2021/12/06 00:46:33;;;;;;;1.20;0.80;;;;;;;20.19;33.81;98477.69;5067598;28;20052;-64
2021/12/06 00:48:59;;;;;;;1.77;0.90;;;;;;;20.18;33.94;98473.34;5069451;28;20492;-64
2021/12/06 00:51:24;;;;;;;1.25;0.77;;;;;;;20.19;33.84;98480.47;5069708;28;20040;-48
2021/12/06 00:53:50;;;;;;;1.08;0.77;;;;;;;20.21;33.80;98483.66;5069719;28;20044;-51
2021/12/06 00:56:16;;;;;;;1.48;0.93;;;;;;;20.21;33.83;98488.41;5069316;28;20048;-48
2021/12/06 00:58:41;;;;;;;1.23;0.80;;;;;;;20.19;33.98;98483.25;5069233;28;20045;-49
2021/12/06 01:01:08;;;;;;;1.23;0.73;;;;;;;20.20;34.01;98482.06;5049409;28;20045;-47
2021/12/06 01:03:38;;;;;;;0.98;0.70;;;;;;;20.21;33.78;98482.84;5049270;28;20124;-50
2021/12/06 01:06:05;;;;;;;0.85;0.70;;;;;;;20.21;33.69;98494.75;5049451;28;20044;-47
2021/12/06 01:08:31;;;;;;;1.10;0.80;;;;;;;20.22;33.88;98492.78;5049375;28;20075;-47
2021/12/06 01:10:57;;;;;;;1.15;0.77;;;;;;;20.22;33.91;98492.78;5048929;28;20413;-48
2021/12/06 01:13:23;;;;;;;1.20;0.75;;;;;;;20.21;33.59;98496.75;5049049;28;20404;-50
2021/12/06 01:15:49;;;;;;;1.30;0.80;;;;;;;20.22;33.83;98498.34;5049043;28;20044;-48
2021/12/06 01:18:17;;;;;;;1.15;0.77;;;;;;;20.22;33.86;98510.25;5049287;28;20063;-48
2021/12/06 01:20:52;;;;;;;1.08;0.77;;;;;;;20.21;33.77;98514.19;5049461;28;20041;-49
2021/12/06 01:23:21;;;;;;;1.25;0.80;;;;;;;20.21;33.67;98514.19;5049210;28;20041;-49
2021/12/06 01:31:21;;;;;;;1.27;0.70;;;;;;;20.18;33.91;98514.19;5049361;28;20515;-50
2021/12/06 01:39:12;;;;;;;1.42;0.80;;;;;;;20.18;33.87;98530.84;5052100;28;20102;-52
2021/12/06 01:41:42;;;;;;;0.80;0.70;;;;;;;20.17;33.92;98546.72;5052407;28;20045;-48
2021/12/06 01:44:15;;;;;;;0.90;0.60;;;;;;;20.14;33.95;98539.16;5052494;28;20137;-48
2021/12/06 01:46:48;;;;;;;0.95;0.80;;;;;;;20.15;33.91;98539.97;5052338;28;20056;-48
2021/12/06 01:49:15;;;;;;;1.05;0.70;;;;;;;20.15;33.90;98546.31;5052520;28;20079;-49
2021/12/06 01:51:42;;;;;;;0.80;0.60;;;;;;;20.15;34.04;98539.97;5052322;28;20128;-51
2021/12/06 01:54:09;;;;;;;0.75;0.63;;;;;;;20.14;33.92;98544.72;5052314;28;20053;-48
2021/12/06 01:56:35;;;;;;;1.13;0.73;;;;;;;20.13;33.93;98554.22;5052440;28;20053;-48
2021/12/06 01:59:01;;;;;;;1.00;0.73;;;;;;;20.13;33.99;98558.97;5052211;28;20074;-48
2021/12/06 02:01:26;;;;;;;0.93;0.77;;;;;;;20.13;34.08;98559.78;5052164;28;20524;-49
2021/12/06 02:03:52;;;;;;;1.17;0.73;;;;;;;20.13;34.03;98556.22;5052074;28;20517;-48
2021/12/06 02:06:18;;;;;;;1.05;0.80;;;;;;;20.12;34.08;98558.19;5052120;28;20447;-50
2021/12/06 02:08:44;;;;;;;1.15;0.70;;;;;;;20.14;34.16;98563.34;5034236;28;20215;-48
2021/12/06 02:11:10;;;;;;;1.05;0.80;;;;;;;20.12;34.17;98569.28;5051919;28;20056;-49
2021/12/06 02:13:52;;;;;;;1.48;0.90;;;;;;;20.14;34.13;98561.38;5051823;28;20045;-48
2021/12/06 02:16:22;;;;;;;1.05;0.68;;;;;;;20.13;34.14;98568.09;5052121;28;20461;-49
2021/12/06 02:18:54;;;;;;;1.35;0.90;;;;;;;20.10;33.99;98571.69;5052165;28;20123;-50
2021/12/06 02:21:20;;;;;;;1.40;0.80;;;;;;;20.11;34.20;98584.38;5048457;28;20056;-48
2021/12/06 02:23:48;;;;;;;1.15;0.80;;;;;;;20.11;34.16;98578.81;5051905;28;20053;-50
2021/12/06 02:26:14;;;;;;;0.75;0.70;;;;;;;20.09;34.26;98580.41;5051892;28;20132;-47
2021/12/06 02:28:41;;;;;;;1.33;0.90;;;;;;;20.09;34.25;98574.84;5051564;28;20051;-51
2021/12/06 02:31:07;;;;;;;1.33;0.90;;;;;;;20.08;34.22;98579.59;5051690;28;20060;-48
2021/12/06 02:33:33;;;;;;;1.40;1.00;;;;;;;20.09;34.14;98574.84;5051713;28;20045;-64
2021/12/06 02:35:59;;;;;;;1.60;1.10;;;;;;;20.08;34.18;98573.25;5051552;28;20099;-64
2021/12/06 02:38:24;;;;;;;1.50;1.00;;;;;;;20.07;34.22;98578.00;5051493;28;20143;-64
2021/12/06 02:40:50;;;;;;;1.38;0.98;;;;;;;20.50;33.79;98580.94;5051281;28;20136;-64
2021/12/06 02:43:15;;;;;;;1.52;0.98;;;;;;;21.23;32.32;98591.78;5051349;28;20053;-64
2021/12/06 02:45:41;;;;;;;1.50;0.90;;;;;;;21.24;32.45;98594.16;5051469;28;20203;-64
2021/12/06 02:48:11;;;;;;;1.35;0.98;;;;;;;21.06;32.49;98593.38;5051364;28;20047;-64
2021/12/06 02:50:44;;;;;;;1.60;1.05;;;;;;;20.89;32.82;98594.94;5049147;28;20577;-64
2021/12/06 02:53:09;;;;;;;1.65;1.00;;;;;;;20.75;33.02;98584.59;5051492;28;20045;-65
2021/12/06 02:55:36;;;;;;;1.10;0.80;;;;;;;20.64;33.17;98597.66;5051381;28;20377;-64
2021/12/06 02:58:45;;;;;;;1.15;0.88;;;;;;;20.52;33.47;98589.72;5051342;28;20106;-64
2021/12/06 03:01:19;;;;;;;1.92;1.02;;;;;;;20.46;33.71;98600.41;5051050;28;20045;-64
2021/12/06 03:03:45;;;;;;;1.17;0.80;;;;;;;21.04;32.82;98596.53;5051258;28;20041;-64
2021/12/06 03:06:13;;;;;;;1.20;0.88;;;;;;;21.48;31.81;98602.94;5051268;28;20437;-65
2021/12/06 03:08:39;;;;;;;2.05;0.90;;;;;;;21.32;32.16;98593.00;5051187;28;20041;-49
2021/12/06 03:11:13;;;;;;;1.75;1.00;;;;;;;21.12;32.61;98600.13;5050883;28;20098;-50
2021/12/06 03:13:39;;;;;;;1.23;0.90;;;;;;;21.25;32.41;98606.88;5051037;28;20056;-48
2021/12/06 03:16:05;;;;;;;1.27;0.90;;;;;;;21.91;31.25;98598.88;5050781;28;20524;-48
2021/12/06 03:18:32;;;;;;;1.30;0.80;;;;;;;21.78;31.28;98589.34;5050949;28;20041;-65
2021/12/06 03:20:58;;;;;;;1.42;0.90;;;;;;;21.55;31.77;98603.72;5050892;28;20417;-64
2021/12/06 03:23:23;;;;;;;1.38;0.90;;;;;;;21.32;32.24;98606.91;5050988;28;20048;-65
2021/12/06 03:25:49;;;;;;;1.20;0.80;;;;;;;21.12;32.69;98605.69;5050754;28;20037;-65
2021/12/06 03:28:14;;;;;;;1.17;0.82;;;;;;;20.96;32.72;98608.84;5050834;28;20088;-65
2021/12/06 03:30:40;;;;;;;1.10;0.80;;;;;;;20.83;32.94;98613.19;5050787;28;20041;-64
2021/12/06 03:33:06;;;;;;;1.35;0.90;;;;;;;20.71;33.23;98605.22;5050721;28;20038;-63
2021/12/06 03:35:31;;;;;;;1.38;0.90;;;;;;;20.62;33.34;98616.72;5050561;28;20053;-48
2021/12/06 03:37:57;;;;;;;1.52;1.02;;;;;;;20.55;33.45;98605.59;5050720;28;20048;-47
2021/12/06 03:40:22;;;;;;;1.50;1.02;;;;;;;20.49;33.53;98610.72;5050775;28;20045;-49
2021/12/06 03:42:48;;;;;;;1.35;1.00;;;;;;;20.44;33.63;98611.13;5050594;28;20378;-65
2021/12/06 03:45:14;;;;;;;1.38;1.00;;;;;;;20.41;33.71;98622.97;5050625;28;20084;-64
2021/12/06 03:47:40;;;;;;;1.60;1.00;;;;;;;20.39;33.72;98621.78;5050560;28;20154;-64
2021/12/06 03:50:08;;;;;;;1.20;0.90;;;;;;;20.33;33.75;98619.38;5050356;28;20045;-64
2021/12/06 03:52:34;;;;;;;1.27;0.88;;;;;;;20.32;33.88;98622.53;5050412;28;20067;-64
2021/12/06 03:55:02;;;;;;;1.55;1.02;;;;;;;20.29;33.89;98629.69;5050469;28;20409;-64
2021/12/06 03:57:28;;;;;;;1.70;1.00;;;;;;;20.27;33.85;98632.03;5050420;28;20044;-64
2021/12/06 03:59:53;;;;;;;1.70;1.05;;;;;;;20.24;33.90;98627.28;5031858;28;20053;-65
2021/12/06 04:02:23;;;;;;;1.27;0.90;;;;;;;20.23;33.79;98636.78;5049264;28;20520;-64
2021/12/06 04:04:49;;;;;;;1.58;0.90;;;;;;;20.22;33.80;98634.41;5050164;28;20049;-64
2021/12/06 04:07:14;;;;;;;1.17;0.70;;;;;;;20.21;33.92;98633.59;5050211;28;20045;-64
2021/12/06 04:09:40;;;;;;;1.08;0.77;;;;;;;20.18;33.93;98637.16;5050163;28;20052;-65
2021/12/06 04:12:08;;;;;;;1.02;0.80;;;;;;;20.19;33.84;98644.28;5049805;28;20068;-64
2021/12/06 04:14:33;;;;;;;1.38;0.80;;;;;;;20.15;33.89;98634.38;5049934;28;20135;-64
2021/12/06 04:16:59;;;;;;;1.23;0.80;;;;;;;20.16;34.00;98641.50;5050270;28;20124;-49
2021/12/06 04:19:25;;;;;;;0.85;0.68;;;;;;;20.16;33.93;98641.50;5049990;28;20166;-50
2021/12/06 04:21:51;;;;;;;0.90;0.65;;;;;;;20.16;33.99;98644.28;5050015;28;20045;-48
2021/12/06 04:24:16;;;;;;;0.85;0.60;;;;;;;20.17;33.78;98655.00;5050093;28;20166;-48
2021/12/06 04:26:42;;;;;;;1.00;0.60;;;;;;;20.17;33.77;98654.22;5049966;28;20409;-48
2021/12/06 04:29:09;;;;;;;1.17;0.80;;;;;;;20.15;33.90;98656.59;5049772;28;20517;-49
2021/12/06 04:31:41;;;;;;;0.73;0.60;;;;;;;20.14;33.98;98655.75;5049827;28;20048;-49
2021/12/06 04:34:07;;;;;;;0.83;0.67;;;;;;;20.15;33.74;98667.69;5049645;28;20045;-48
2021/12/06 04:36:33;;;;;;;0.68;0.60;;;;;;;20.14;33.76;98677.19;5049716;28;20374;-51
2021/12/06 04:38:58;;;;;;;0.90;0.60;;;;;;;20.12;33.87;98683.13;5049950;28;20135;-65
2021/12/06 04:41:24;;;;;;;0.80;0.60;;;;;;;20.13;33.93;98676.38;5049675;28;20040;-64
2021/12/06 04:43:50;;;;;;;1.00;0.68;;;;;;;20.12;33.99;98677.56;5049641;28;20114;-64
2021/12/06 04:46:16;;;;;;;0.90;0.70;;;;;;;20.12;33.99;98674.78;5049462;28;20040;-63
2021/12/06 04:48:42;;;;;;;0.80;0.60;;;;;;;20.13;33.85;98681.94;5049314;28;20063;-64
2021/12/06 04:51:08;;;;;;;1.05;0.70;;;;;;;20.13;33.81;98695.03;5049571;28;20468;-64
2021/12/06 04:53:36;;;;;;;1.20;0.70;;;;;;;20.12;33.89;98694.22;5049479;28;20585;-65
2021/12/06 04:56:20;;;;;;;1.50;0.88;;;;;;;20.13;33.98;98687.50;5049458;28;20524;-63
2021/12/06 04:59:05;;;;;;;1.35;0.85;;;;;;;20.13;33.88;98704.16;5049618;28;20056;-65
2021/12/06 05:01:33;;;;;;;1.33;0.90;;;;;;;20.13;33.93;98706.13;5048489;28;20037;-64
2021/12/06 05:04:03;;;;;;;1.10;0.90;;;;;;;20.12;33.91;98713.66;5049441;28;20110;-65
2021/12/06 05:06:32;;;;;;;1.13;0.80;;;;;;;20.12;34.03;98705.34;5049592;28;20041;-65
2021/12/06 05:09:02;;;;;;;1.70;1.02;;;;;;;20.10;33.87;98709.69;5049807;28;20103;-65
2021/12/06 05:11:29;;;;;;;1.30;0.80;;;;;;;20.11;33.89;98714.06;5049605;28;20048;-65
2021/12/06 05:13:57;;;;;;;1.70;1.00;;;;;;;20.09;33.95;98720.00;5049123;28;20052;-50
2021/12/06 05:16:23;;;;;;;1.60;1.02;;;;;;;20.10;33.81;98715.25;5049161;28;20091;-49
2021/12/06 05:18:49;;;;;;;1.67;1.08;;;;;;;20.10;33.89;98720.78;5049049;28;20068;-48
2021/12/06 05:21:16;;;;;;;1.15;0.90;;;;;;;20.08;33.86;98721.19;5049221;28;20553;-49
2021/12/06 05:23:42;;;;;;;1.33;0.90;;;;;;;20.09;33.96;98727.53;5049363;28;20477;-48
2021/12/06 05:26:07;;;;;;;1.30;0.93;;;;;;;20.09;33.80;98724.75;5048939;28;20084;-47
2021/12/06 05:28:39;;;;;;;1.40;0.85;;;;;;;20.08;33.75;98734.28;5049034;28;20423;-47
2021/12/06 05:31:13;;;;;;;1.10;0.80;;;;;;;20.07;33.76;98739.00;5048827;28;20056;-49
2021/12/06 05:33:41;;;;;;;1.40;0.90;;;;;;;20.05;33.79;98742.16;5049248;28;20057;-49
2021/12/06 05:36:06;;;;;;;1.23;0.95;;;;;;;20.04;33.90;98745.34;5048638;28;20102;-48
2021/12/06 05:38:32;;;;;;;1.10;0.80;;;;;;;20.04;33.81;98756.44;5047919;28;20056;-47
2021/12/06 05:40:57;;;;;;;0.77;0.60;;;;;;;20.03;33.73;98752.09;5049157;28;20037;-50
2021/12/06 05:43:24;;;;;;;1.40;0.90;;;;;;;20.02;33.87;98758.81;5048923;28;20059;-49
2021/12/06 05:45:50;;;;;;;1.30;0.80;;;;;;;20.03;33.90;98757.63;5048708;28;20049;-48
2021/12/06 05:48:16;;;;;;;1.15;0.80;;;;;;;20.00;33.86;98753.66;5048756;28;20056;-49
2021/12/06 05:50:44;;;;;;;1.35;0.80;;;;;;;20.02;33.87;98770.72;5049002;28;20044;-47
2021/12/06 05:53:10;;;;;;;0.63;0.60;;;;;;;20.02;33.80;98775.47;5030887;28;20481;-64
2021/12/06 05:55:35;;;;;;;0.85;0.63;;;;;;;19.98;33.66;98763.53;5048822;28;20564;-64
2021/12/06 05:58:03;;;;;;;0.70;0.50;;;;;;;20.02;33.86;98776.28;5048761;28;20044;-64
2021/12/06 06:00:32;;;;;;;0.68;0.50;;;;;;;20.03;33.85;98777.84;5048730;28;20386;-65
2021/12/06 06:02:59;;;;;;;0.88;0.60;;;;;;;20.03;33.97;98777.06;5048737;28;20049;-64
2021/12/06 06:05:25;;;;;;;0.63;0.47;;;;;;;20.04;33.93;98786.97;5048509;28;20041;-64
2021/12/06 06:07:51;;;;;;;0.82;0.60;;;;;;;20.04;33.91;98795.31;5048594;28;20056;-64
2021/12/06 06:10:16;;;;;;;0.98;0.60;;;;;;;20.02;33.99;98787.38;5048272;28;20053;-64
2021/12/06 06:12:43;;;;;;;1.00;0.75;;;;;;;20.04;33.98;98798.09;5048369;28;20208;-64
2021/12/06 06:15:09;;;;;;;0.77;0.60;;;;;;;20.06;33.96;98799.28;5048516;28;20048;-64
2021/12/06 06:17:43;;;;;;;1.08;0.70;;;;;;;20.07;34.08;98802.84;5048503;28;20045;-64
2021/12/06 06:20:17;;;;;;;1.80;1.10;;;;;;;20.06;33.88;98809.59;5047628;28;20124;-63
2021/12/06 06:22:42;;;;;;;1.38;0.95;;;;;;;20.06;33.87;98804.03;5048458;28;20405;-64
2021/12/06 06:25:08;;;;;;;1.30;0.90;;;;;;;20.10;33.94;98806.88;5050347;28;20497;-64
2021/12/06 06:27:34;;;;;;;1.30;0.90;;;;;;;20.11;33.94;98823.13;5051956;28;20045;-64
2021/12/06 06:29:59;;;;;;;1.13;0.80;;;;;;;20.12;33.88;98833.06;5051705;28;20041;-64
2021/12/06 06:32:25;;;;;;;1.23;0.77;;;;;;;20.12;33.81;98835.81;5051454;28;20041;-48
2021/12/06 06:34:50;;;;;;;1.45;0.80;;;;;;;20.12;33.75;98840.59;5051715;28;20045;-48
2021/12/06 06:37:16;;;;;;;1.30;0.90;;;;;;;20.63;33.20;98843.38;5051599;28;20045;-49
2021/12/06 06:39:42;;;;;;;1.13;0.82;;;;;;;21.27;32.29;98843.69;5051427;28;20044;-63
2021/12/06 06:42:08;;;;;;;1.38;0.90;;;;;;;21.24;32.08;98844.50;5051633;28;20079;-64
2021/12/06 06:44:33;;;;;;;1.30;0.77;;;;;;;21.07;32.53;98847.97;5051449;28;20044;-64
2021/12/06 06:46:59;;;;;;;1.40;0.80;;;;;;;20.90;32.59;98852.28;5051487;28;20505;-64
2021/12/06 06:49:25;;;;;;;1.80;1.10;;;;;;;20.79;32.85;98860.56;5051441;28;20038;-48
2021/12/06 06:51:51;;;;;;;71.20;3.13;;;;;;;20.68;33.07;98856.91;5051512;28;20441;-49
2021/12/06 06:54:17;;;;;;;28.10;3.53;;;;;;;20.64;33.50;98860.84;5051233;28;20049;-49
2021/12/06 06:56:42;;;;;;;42.65;4.07;;;;;;;20.55;33.38;98861.19;5051318;28;20250;-50
2021/12/06 06:59:08;;;;;;;31.58;3.28;;;;;;;20.49;33.53;98869.06;5051434;28;20179;-48
2021/12/06 07:01:34;;;;;;;31.15;2.95;;;;;;;20.44;33.52;98874.19;5051218;28;20444;-48
2021/12/06 07:03:59;;;;;;;20.90;2.92;;;;;;;20.39;33.69;98877.31;5051282;28;20120;-48
2021/12/06 07:06:26;;;;;;;30.40;2.30;;;;;;;20.37;33.80;98882.47;5051301;28;20076;-47
2021/12/06 07:08:54;;;;;;;33.85;2.40;;;;;;;20.33;33.75;98886.00;5051242;28;20045;-47
2021/12/06 07:11:21;;;;;;;24.00;2.03;;;;;;;20.31;33.78;98887.56;5051164;28;20041;-47
2021/12/06 07:13:47;;;;;;;20.65;2.13;;;;;;;20.30;33.83;98899.84;5033096;28;20191;-52
2021/12/06 07:16:15;;;;;;;9.48;1.63;;;;;;;20.28;33.96;98900.22;5050875;28;20044;-48
2021/12/06 07:18:41;;;;;;;30.50;2.17;;;;;;;20.27;33.90;98909.75;5051267;28;20477;-48
2021/12/06 07:21:07;;;;;;;9.55;2.08;;;;;;;20.24;33.86;98915.28;5051163;28;20531;-48
2021/12/06 07:23:38;;;;;;;12.52;2.25;;;;;;;20.24;33.82;98916.06;5050905;28;20045;-48
2021/12/06 07:26:05;;;;;;;9.32;2.20;;;;;;;20.24;33.67;98913.28;5050969;28;20092;-50
2021/12/06 07:28:30;;;;;;;6.97;1.55;;;;;;;20.23;33.96;98914.47;5050808;28;20152;-48
2021/12/06 07:30:58;;;;;;;15.07;1.23;;;;;;;20.24;33.86;98926.38;5050737;28;20041;-63
2021/12/06 07:33:25;;;;;;;10.45;1.90;;;;;;;20.22;34.02;98924.00;5050694;28;20055;-63
2021/12/06 07:35:51;;;;;;;7.85;1.50;;;;;;;20.22;33.95;98934.31;5050447;28;20061;-63
2021/12/06 07:38:16;;;;;;;3.65;1.13;;;;;;;20.20;34.00;98943.00;5050538;28;20421;-63
2021/12/06 07:40:42;;;;;;;3.22;0.95;;;;;;;20.20;33.97;98945.78;5050798;28;20048;-63
2021/12/06 07:43:07;;;;;;;3.88;1.13;;;;;;;20.21;33.96;98949.34;5050610;28;20045;-63
2021/12/06 07:45:33;;;;;;;5.70;1.08;;;;;;;20.20;34.01;98954.09;5050330;28;20131;-63
2021/12/06 07:48:02;;;;;;;7.07;0.90;;;;;;;20.20;33.96;98962.44;5049364;28;20048;-63
2021/12/06 07:50:27;;;;;;;3.20;0.90;;;;;;;20.19;34.07;98966.41;5050446;28;20049;-63
2021/12/06 07:52:53;;;;;;;7.30;1.02;;;;;;;20.19;34.08;98969.16;5050282;28;20037;-63
2021/12/06 07:55:21;;;;;;;2.20;0.95;;;;;;;20.18;33.95;98978.69;5048640;28;20573;-63
2021/12/06 07:57:47;;;;;;;4.85;1.25;;;;;;;20.20;33.95;98979.09;5050197;28;20049;-63
2021/12/06 08:00:19;;;;;;;3.80;0.90;;;;;;;20.21;33.96;98989.03;5050363;28;20052;-63
2021/12/06 08:02:45;;;;;;;6.63;1.00;;;;;;;20.20;33.94;98981.88;5050297;28;20040;-63
2021/12/06 08:05:32;;;;;;;2.95;0.85;;;;;;;20.21;33.97;98991.78;5049689;28;20406;-63
2021/12/06 08:07:59;;;;;;;2.95;0.90;;;;;;;20.20;34.11;98992.97;5048691;28;20075;-63
2021/12/06 08:10:25;;;;;;;5.53;0.95;;;;;;;20.21;33.98;98993.78;5044363;28;20076;-63
2021/12/06 08:12:50;;;;;;;7.60;1.38;;;;;;;20.22;34.06;98995.41;5049043;28;20476;-64
2021/12/06 08:15:16;;;;;;;2.95;1.20;;;;;;;20.19;34.04;98994.16;5042877;28;20651;-63
2021/12/06 08:17:41;;;;;;;2.45;1.00;;;;;;;20.22;34.17;99001.75;5035060;28;20067;-63
2021/12/06 08:20:09;;;;;;;2.40;1.13;;;;;;;20.22;34.00;99003.72;5044991;28;20040;-64
2021/12/06 08:22:35;;;;;;;2.13;1.33;;;;;;;20.23;33.90;99008.91;5046625;28;20045;-64
2021/12/06 08:25:01;;;;;;;2.47;1.20;;;;;;;20.27;33.73;99014.47;5046980;28;20160;-64
2021/12/06 08:27:27;;;;;;;1.88;1.25;;;;;;;20.30;33.86;99027.63;5045172;28;20113;-64
2021/12/06 08:29:53;;;;;;;2.45;1.20;;;;;;;20.33;33.72;99021.28;5046549;28;20057;-64
2021/12/06 08:32:18;;;;;;;3.63;1.52;;;;;;;20.36;33.65;99028.88;5046002;28;20404;-64
2021/12/06 08:34:44;;;;;;;1.83;1.20;;;;;;;20.37;33.41;99029.66;5044914;28;20128;-64
2021/12/06 08:37:12;;;;;;;3.13;1.40;;;;;;;20.39;33.48;99038.41;5045157;28;20044;-63
2021/12/06 08:39:38;;;;;;;2.97;1.50;;;;;;;20.38;33.34;99037.63;5037269;28;20056;-64
2021/12/06 08:42:05;;;;;;;2.03;1.30;;;;;;;20.39;33.76;99041.19;5046419;28;20078;-63
2021/12/06 08:44:31;;;;;;;2.30;1.30;;;;;;;20.39;33.43;99044.78;5029292;28;20572;-51
2021/12/06 08:46:57;;;;;;;3.53;1.45;;;;;;;20.40;33.41;99048.34;5042949;28;20108;-51
2021/12/06 08:49:23;;;;;;;2.45;1.27;;;;;;;20.41;33.41;99052.72;5045314;28;20067;-51
2021/12/06 08:51:54;;;;;;;1.83;1.20;;;;;;;20.42;33.32;99051.53;5045399;28;20098;-49
2021/12/06 08:54:22;;;;;;;2.22;1.30;;;;;;;20.38;33.49;99059.84;5045166;28;20076;-47
2021/12/06 08:56:48;;;;;;;2.35;1.40;;;;;;;20.38;33.42;99059.84;5044723;28;20428;-48
2021/12/06 08:59:14;;;;;;;2.58;1.50;;;;;;;20.35;33.41;99064.16;5029284;28;20033;-49
2021/12/06 09:01:40;;;;;;;2.20;1.35;;;;;;;20.38;33.47;99064.59;5041700;28;20082;-49
2021/12/06 09:04:10;;;;;;;2.05;1.40;;;;;;;20.38;33.54;99061.81;5044541;28;20034;-51
2021/12/06 09:06:39;;;;;;;2.10;1.23;;;;;;;20.38;33.43;99070.16;5047348;28;20118;-48
2021/12/06 09:09:07;;;;;;;2.47;1.40;;;;;;;20.37;33.49;99074.13;5044678;28;20045;-51
2021/12/06 09:11:34;;;;;;;3.40;1.63;;;;;;;20.35;33.71;99071.69;5053244;28;20548;-50
2021/12/06 09:13:59;;;;;;;2.60;1.45;;;;;;;20.36;33.75;99076.09;5043009;28;20045;-49
2021/12/06 09:16:25;;;;;;;2.60;1.73;;;;;;;20.37;33.79;99090.78;5043705;28;20111;-51
2021/12/06 09:18:50;;;;;;;1.92;1.40;;;;;;;20.38;33.85;99081.25;5045736;28;20136;-48
2021/12/06 09:21:20;;;;;;;2.33;1.50;;;;;;;20.35;33.66;99080.81;5049108;28;20471;-63
2021/12/06 09:23:46;;;;;;;2.75;1.60;;;;;;;20.41;33.75;99099.94;5051511;28;20076;-64
2021/12/06 09:26:12;;;;;;;3.25;1.65;;;;;;;20.42;33.82;99098.75;5045663;28;20072;-64
2021/12/06 09:28:37;;;;;;;2.50;1.75;;;;;;;20.43;33.56;99101.19;5044671;28;20037;-64
2021/12/06 09:31:04;;;;;;;2.95;1.80;;;;;;;20.46;33.64;99097.66;5056908;28;20032;-63
2021/12/06 09:33:32;;;;;;;2.85;1.80;;;;;;;20.47;33.76;99104.81;5045564;28;21974;-64
2021/12/06 09:35:59;;;;;;;3.38;1.98;;;;;;;20.51;33.67;99105.66;5048946;28;20109;-65
2021/12/06 09:38:28;;;;;;;2.85;1.80;;;;;;;20.56;33.53;99113.63;5043422;28;20053;-65
2021/12/06 09:40:56;;;;;;;3.63;1.90;;;;;;;20.59;33.31;99115.66;5044684;28;20041;-50
2021/12/06 09:43:23;;;;;;;5.63;2.20;;;;;;;20.61;33.48;99120.84;5043766;28;20110;-49
2021/12/06 09:45:49;;;;;;;2.83;1.90;;;;;;;20.64;33.49;99127.59;5043560;28;20423;-48
2021/12/06 09:48:17;;;;;;;3.85;2.10;;;;;;;20.64;33.55;99139.53;5053100;28;20045;-48
2021/12/06 09:50:48;;;;;;;2.60;1.83;;;;;;;20.64;33.48;99133.97;5062080;28;20048;-51
2021/12/06 09:53:18;;;;;;;3.35;2.10;;;;;;;20.63;33.69;99137.91;5065693;28;20377;-52
2021/12/06 09:55:46;;;;;;;3.15;2.00;;;;;;;20.64;33.76;99145.06;5064245;28;20055;-52
2021/12/06 09:58:11;;;;;;;3.35;2.15;;;;;;;20.66;33.67;99145.50;5064069;28;20052;-51
2021/12/06 10:00:43;;;;;;;3.60;1.90;;;;;;;20.66;33.62;99142.75;5066323;28;20045;-53
2021/12/06 10:03:10;;;;;;;3.95;2.22;;;;;;;20.67;33.74;99149.09;5067754;28;20040;-50
2021/12/06 10:05:36;;;;;;;3.10;2.00;;;;;;;20.65;33.89;99143.91;5066544;28;20087;-49
2021/12/06 10:08:03;;;;;;;3.55;2.08;;;;;;;20.70;33.79;99145.53;5066740;28;20136;-53
2021/12/06 10:10:30;;;;;;;3.25;1.85;;;;;;;20.69;33.76;99141.97;5066618;28;20040;-48
2021/12/06 10:12:57;;;;;;;2.70;1.88;;;;;;;20.66;33.88;99137.19;5060472;28;20040;-49
2021/12/06 10:15:26;;;;;;;9.43;2.20;;;;;;;20.68;33.78;99142.34;5064854;28;20565;-53
2021/12/06 10:17:54;;;;;;;4.10;1.80;;;;;;;20.70;33.96;99135.22;5067626;28;20053;-53
2021/12/06 10:20:20;;;;;;;2.88;1.70;;;;;;;20.73;34.07;99133.69;5064558;28;20049;-53
2021/12/06 10:22:46;;;;;;;3.17;1.70;;;;;;;20.73;33.87;99137.25;5052893;28;20055;-65
2021/12/06 10:25:11;;;;;;;3.30;1.80;;;;;;;20.74;33.87;99133.28;5060038;28;20092;-67
2021/12/06 10:27:36;;;;;;;2.90;1.90;;;;;;;20.80;34.37;99136.53;5068383;28;20048;-64
2021/12/06 10:30:11;;;;;;;4.45;1.85;;;;;;;20.83;34.20;99132.97;5067405;28;20055;-66
2021/12/06 10:32:41;;;;;;;4.00;3.10;;;;;;;20.85;34.24;99144.50;5079065;28;20043;-64
2021/12/06 10:35:10;;;;;;;2.83;1.98;;;;;;;20.86;34.59;99138.59;5073474;28;20047;-66
2021/12/06 10:37:45;;;;;;;3.08;2.15;;;;;;;20.89;34.61;99146.16;5078250;28;20691;-63
2021/12/06 10:40:15;;;;;;;3.25;2.22;;;;;;;20.91;34.72;99148.53;5076391;28;20047;-64
2021/12/06 10:42:44;;;;;;;3.25;2.33;;;;;;;20.93;34.68;99150.94;5081882;28;20677;-62
2021/12/06 10:45:14;;;;;;;3.20;2.00;;;;;;;20.94;34.57;99149.78;5082408;28;20048;-63
2021/12/06 10:47:40;;;;;;;3.00;2.03;;;;;;;20.96;34.48;99153.78;5064046;28;20810;-65
2021/12/06 10:50:16;;;;;;;3.20;2.00;;;;;;;20.96;34.63;99152.97;5066447;28;20495;-63
2021/12/06 10:52:50;;;;;;;3.58;1.92;;;;;;;20.96;34.98;99156.53;5066024;28;20050;-62
2021/12/06 10:55:18;;;;;;;2.60;1.80;;;;;;;20.96;35.09;99153.78;5065699;28;20479;-61
2021/12/06 10:57:54;;;;;;;3.40;1.83;;;;;;;21.00;35.11;99165.72;5058671;28;20412;-61
2021/12/06 11:00:34;;;;;;;4.57;1.70;;;;;;;21.02;35.10;99159.78;5065852;28;20049;-61
2021/12/06 11:03:01;;;;;;;3.20;2.05;;;;;;;20.98;35.20;99161.72;5066750;28;20046;-62
2021/12/06 11:05:30;;;;;;;3.00;1.85;;;;;;;20.95;34.91;99159.72;5066610;28;20428;-60
2021/12/06 11:08:17;;;;;;;2.85;1.88;;;;;;;20.96;34.97;99166.88;5051314;28;20140;-61
2021/12/06 11:10:49;;;;;;;2.80;2.00;;;;;;;20.96;35.17;99172.44;5054005;28;20049;-62
2021/12/06 11:13:23;;;;;;;2.35;1.42;;;;;;;20.96;35.27;99173.22;5068486;28;20091;-62
2021/12/06 11:16:14;;;;;;;3.35;2.20;;;;;;;20.95;35.17;99168.84;5068852;28;20060;-63
2021/12/06 11:18:51;;;;;;;3.65;2.40;;;;;;;20.94;35.08;99178.38;5054429;28;20048;-63
2021/12/06 11:21:21;;;;;;;7.43;2.92;;;;;;;20.92;35.22;99177.16;5068759;28;20036;-63
2021/12/06 11:23:57;;;;;;;4.78;2.85;;;;;;;20.91;34.83;99165.22;5079798;28;20051;-62
2021/12/06 11:26:22;;;;;;;4.90;2.60;;;;;;;20.94;34.92;99169.25;5052162;28;20041;-64
2021/12/06 11:28:48;;;;;;;13.05;2.50;;;;;;;20.99;34.52;99168.88;5069102;28;20420;-62
2021/12/06 11:31:16;;;;;;;3.30;2.17;;;;;;;21.02;34.40;99165.34;5068137;28;20618;-62
2021/12/06 11:33:41;;;;;;;3.13;2.10;;;;;;;21.05;34.39;99161.78;5070263;28;20127;-64
2021/12/06 11:36:25;;;;;;;6.07;1.90;;;;;;;21.12;34.06;99167.41;5061304;28;20449;-57
2021/12/06 11:39:17;;;;;;;6.55;2.03;;;;;;;21.12;33.92;99159.06;5068894;28;20287;-55
2021/12/06 11:41:46;;;;;;;3.42;1.90;;;;;;;21.10;34.12;99164.22;5075028;28;20052;-57
2021/12/06 11:44:21;;;;;;;2.47;1.77;;;;;;;21.08;34.21;99166.59;5068850;28;20419;-58
2021/12/06 11:46:53;;;;;;;2.95;1.98;;;;;;;21.06;34.06;99172.53;5069452;28;20047;-57
2021/12/06 11:49:28;;;;;;;5.70;1.80;;;;;;;21.05;33.80;99170.94;5068076;28;20037;-57